»·PEaware :: N172SP KSNA-KCRQ

N172SP :: KSNA-KCRQ

FLIGHT INFORMATION

Flight Status: Arrived
Operator: Privately registered:
United States
More flights under this callsign
Pilot: Carson T. (20437)
Aircraft: CESSNA 172 SKYHAWK
(C172)
More flights by this aircraft type
Origin: KSNA John Wayne-Orange Co
United States
Destination: KCRQ McClellan-Palomar
United States
More flights between these airports :: More routes between these airports
Route: +V23 OCN
File this flight plan on PilotEdge
Remarks: I-2 Rating, vectors for the ILS RWY 24 approach @ KCRQ.
Altitude:
(Current/Filed)
5,000ft
Speed:
(Current/Filed)
120kts
Departed: 18-Oct-18 01:47 PM
Arrived: 18-Oct-18 02:24 PM
Distance/Time
Traveled:
44nm/0:37
Distance/Time
To Go:
Arrived

Flight Plot

Page will automatically refresh every two minutes.


Map Options




Map Legend


Flown Route
Filed Route
Departure Airport
Arrival Airport
Navaid (VOR, NDB)
Fix

Horizontal Profiles

Position Reports

Time Latitude Longitude Heading Altitude Ground
Speed
18-Oct-18 13:36 33.676205 -117.871104 212 60ft 0kts
18-Oct-18 13:37 33.676205 -117.871104 212 60ft 0kts
18-Oct-18 13:38 33.676205 -117.871104 212 60ft 0kts
18-Oct-18 13:39 33.676205 -117.871104 212 60ft 0kts
18-Oct-18 13:40 33.676205 -117.871104 212 60ft 0kts
18-Oct-18 13:41 33.676203 -117.871106 213 60ft 0kts
18-Oct-18 13:42 33.677030 -117.869445 27 60ft 15kts
18-Oct-18 13:43 33.681162 -117.866928 55 60ft 21kts
18-Oct-18 13:44 33.681222 -117.866455 116 60ft 0kts
18-Oct-18 13:45 33.681222 -117.866455 116 60ft 0kts
18-Oct-18 13:46 33.681222 -117.866455 116 60ft 0kts
18-Oct-18 13:47 33.681222 -117.866455 116 60ft 0kts
18-Oct-18 13:48 33.681217 -117.866444 116 60ft 1kts
18-Oct-18 13:49 33.666473 -117.874501 209 424ft 100kts
18-Oct-18 13:50 33.637614 -117.882357 189 1233ft 111kts
18-Oct-18 13:51 33.606810 -117.887650 189 2035ft 113kts
18-Oct-18 13:52 33.575676 -117.892960 189 2831ft 113kts
18-Oct-18 13:53 33.544698 -117.898270 189 3628ft 112kts
18-Oct-18 13:54 33.521816 -117.881248 114 4434ft 108kts
18-Oct-18 13:55 33.506850 -117.847591 114 4973ft 120kts
18-Oct-18 13:56 33.490043 -117.809352 114 5007ft 136kts
18-Oct-18 13:57 33.472619 -117.769164 114 4997ft 136kts
18-Oct-18 13:58 33.455587 -117.729457 114 4983ft 127kts
18-Oct-18 13:59 33.439592 -117.693212 121 4969ft 122kts
18-Oct-18 14:00 33.419742 -117.660567 127 4957ft 121kts
18-Oct-18 14:01 33.398016 -117.629991 137 4946ft 121kts
18-Oct-18 14:02 33.369243 -117.609503 153 4941ft 121kts
18-Oct-18 14:03 33.338893 -117.592205 149 4941ft 121kts
18-Oct-18 14:04 33.313350 -117.568018 126 4946ft 114kts
18-Oct-18 14:05 33.299204 -117.534730 112 4956ft 112kts
18-Oct-18 14:06 33.285506 -117.500865 113 4965ft 114kts
18-Oct-18 14:07 33.271596 -117.466434 112 4974ft 116kts
18-Oct-18 14:08 33.255690 -117.432483 125 4984ft 118kts
18-Oct-18 14:09 33.249421 -117.395232 82 4996ft 125kts
18-Oct-18 14:10 33.252352 -117.353103 81 5006ft 129kts
18-Oct-18 14:11 33.255540 -117.310769 82 5006ft 129kts
18-Oct-18 14:12 33.258740 -117.267924 82 5007ft 129kts
18-Oct-18 14:13 33.261892 -117.225356 82 5008ft 128kts
18-Oct-18 14:14 33.265015 -117.182840 81 5010ft 128kts
18-Oct-18 14:15 33.268108 -117.140505 81 5011ft 127kts
18-Oct-18 14:16 33.271229 -117.098316 81 5014ft 128kts
18-Oct-18 14:17 33.266333 -117.057396 151 4826ft 137kts
18-Oct-18 14:18 33.228615 -117.048871 179 4064ft 140kts
18-Oct-18 14:19 33.191002 -117.054630 194 3460ft 129kts
18-Oct-18 14:20 33.162065 -117.071604 221 3477ft 123kts
18-Oct-18 14:21 33.150580 -117.108210 267 3279ft 126kts
18-Oct-18 14:22 33.147962 -117.145931 266 2583ft 113kts
18-Oct-18 14:23 33.141754 -117.182963 269 1913ft 116kts
18-Oct-18 14:24 33.137195 -117.220567 260 1260ft 115kts
18-Oct-18 14:25 33.131937 -117.255258 261 663ft 69kts
18-Oct-18 14:26 33.128990 -117.275397 262 309ft 39kts
18-Oct-18 14:27 33.127442 -117.280132 228 309ft 0kts
18-Oct-18 14:28 33.126953 -117.280419 264 310ft 0kts
18-Oct-18 14:29 33.126953 -117.280419 264 310ft 0kts
18-Oct-18 14:30 33.126953 -117.280419 264 310ft 0kts
18-Oct-18 14:31 33.126953 -117.280419 264 310ft 0kts
18-Oct-18 14:32 33.126953 -117.280419 264 310ft 0kts
18-Oct-18 14:33 33.126953 -117.280419 264 310ft 0kts
18-Oct-18 14:34 33.126953 -117.280419 264 310ft 0kts
18-Oct-18 14:35 33.126953 -117.280419 264 310ft 0kts
18-Oct-18 14:36 33.126953 -117.280419 264 310ft 0kts
18-Oct-18 14:37 33.126953 -117.280419 264 310ft 0kts
18-Oct-18 14:38 33.126953 -117.280419 264 310ft 0kts
18-Oct-18 14:39 33.126953 -117.280419 264 310ft 0kts
18-Oct-18 14:40 33.126953 -117.280419 264 310ft 0kts
18-Oct-18 14:41 33.126953 -117.280419 264 310ft 0kts

Navigation Log

Ident Type
1. KSNA Airport
2. OCN Navaid
3. KCRQ Airport